sensor_id;sensor_type;location;lat;lon;timestamp;temperature;humidity
16247;DHT22;8231;50.866;7.944;2023-12-20T00:00:05;5.60;99.90
16247;DHT22;8231;50.866;7.944;2023-12-20T00:02:36;5.60;99.90
16247;DHT22;8231;50.866;7.944;2023-12-20T00:05:05;5.60;99.90
16247;DHT22;8231;50.866;7.944;2023-12-20T00:07:33;5.60;99.90
16247;DHT22;8231;50.866;7.944;2023-12-20T00:10:01;5.60;99.90
16247;DHT22;8231;50.866;7.944;2023-12-20T00:12:30;5.60;99.90
16247;DHT22;8231;50.866;7.944;2023-12-20T00:14:58;5.60;99.90
16247;DHT22;8231;50.866;7.944;2023-12-20T00:17:28;5.60;99.90
16247;DHT22;8231;50.866;7.944;2023-12-20T00:19:56;5.60;99.90
16247;DHT22;8231;50.866;7.944;2023-12-20T00:22:24;5.70;99.90
16247;DHT22;8231;50.866;7.944;2023-12-20T00:24:52;5.70;99.90
16247;DHT22;8231;50.866;7.944;2023-12-20T00:27:21;5.70;99.90
16247;DHT22;8231;50.866;7.944;2023-12-20T00:29:50;5.70;99.90
16247;DHT22;8231;50.866;7.944;2023-12-20T00:32:18;5.70;99.90
16247;DHT22;8231;50.866;7.944;2023-12-20T00:34:47;5.70;99.90
16247;DHT22;8231;50.866;7.944;2023-12-20T00:37:15;5.70;99.90
16247;DHT22;8231;50.866;7.944;2023-12-20T00:39:44;5.70;99.90
16247;DHT22;8231;50.866;7.944;2023-12-20T00:42:12;5.70;99.90
16247;DHT22;8231;50.866;7.944;2023-12-20T00:44:41;5.80;99.90
16247;DHT22;8231;50.866;7.944;2023-12-20T00:47:09;5.80;99.90
16247;DHT22;8231;50.866;7.944;2023-12-20T00:49:37;5.80;99.90
16247;DHT22;8231;50.866;7.944;2023-12-20T00:52:06;5.80;99.90
16247;DHT22;8231;50.866;7.944;2023-12-20T00:54:35;5.80;99.90
16247;DHT22;8231;50.866;7.944;2023-12-20T00:57:03;5.80;99.90
16247;DHT22;8231;50.866;7.944;2023-12-20T00:59:31;5.80;99.90
16247;DHT22;8231;50.866;7.944;2023-12-20T01:01:59;5.80;99.90
16247;DHT22;8231;50.866;7.944;2023-12-20T01:04:28;5.80;99.90
16247;DHT22;8231;50.866;7.944;2023-12-20T01:06:56;5.90;99.90
16247;DHT22;8231;50.866;7.944;2023-12-20T01:09:26;5.90;99.90
16247;DHT22;8231;50.866;7.944;2023-12-20T01:11:54;5.90;99.90
16247;DHT22;8231;50.866;7.944;2023-12-20T01:14:22;5.90;99.90
16247;DHT22;8231;50.866;7.944;2023-12-20T01:16:51;5.90;99.90
16247;DHT22;8231;50.866;7.944;2023-12-20T01:19:19;5.90;99.90
16247;DHT22;8231;50.866;7.944;2023-12-20T01:21:48;5.90;99.90
16247;DHT22;8231;50.866;7.944;2023-12-20T01:24:16;5.90;99.90
16247;DHT22;8231;50.866;7.944;2023-12-20T01:26:45;6.00;99.90
16247;DHT22;8231;50.866;7.944;2023-12-20T01:29:13;6.00;99.90
16247;DHT22;8231;50.866;7.944;2023-12-20T01:31:42;6.00;99.90
16247;DHT22;8231;50.866;7.944;2023-12-20T01:34:11;6.00;99.90
16247;DHT22;8231;50.866;7.944;2023-12-20T01:36:39;6.00;99.90
16247;DHT22;8231;50.866;7.944;2023-12-20T01:39:07;6.00;99.90
16247;DHT22;8231;50.866;7.944;2023-12-20T01:41:52;6.00;99.90
16247;DHT22;8231;50.866;7.944;2023-12-20T01:44:21;6.00;99.90
16247;DHT22;8231;50.866;7.944;2023-12-20T01:46:49;6.10;99.90
16247;DHT22;8231;50.866;7.944;2023-12-20T01:49:17;6.10;99.90
16247;DHT22;8231;50.866;7.944;2023-12-20T01:51:46;6.10;99.90
16247;DHT22;8231;50.866;7.944;2023-12-20T01:54:15;6.10;99.90
16247;DHT22;8231;50.866;7.944;2023-12-20T01:56:43;6.10;99.90
16247;DHT22;8231;50.866;7.944;2023-12-20T01:59:13;6.10;99.90
16247;DHT22;8231;50.866;7.944;2023-12-20T02:01:41;6.20;99.90
16247;DHT22;8231;50.866;7.944;2023-12-20T02:04:09;6.10;99.90
16247;DHT22;8231;50.866;7.944;2023-12-20T02:06:40;6.00;99.90
16247;DHT22;8231;50.866;7.944;2023-12-20T02:09:08;6.00;99.90
16247;DHT22;8231;50.866;7.944;2023-12-20T02:11:36;5.90;99.90
16247;DHT22;8231;50.866;7.944;2023-12-20T02:14:04;5.90;99.90
16247;DHT22;8231;50.866;7.944;2023-12-20T02:16:34;5.90;99.90
16247;DHT22;8231;50.866;7.944;2023-12-20T02:19:03;5.90;99.90
16247;DHT22;8231;50.866;7.944;2023-12-20T02:21:33;5.90;99.90
16247;DHT22;8231;50.866;7.944;2023-12-20T02:24:02;5.90;99.90
16247;DHT22;8231;50.866;7.944;2023-12-20T02:26:31;5.80;99.90
16247;DHT22;8231;50.866;7.944;2023-12-20T02:29:00;5.80;99.90
16247;DHT22;8231;50.866;7.944;2023-12-20T02:31:29;5.70;99.90
16247;DHT22;8231;50.866;7.944;2023-12-20T02:33:57;5.70;99.90
16247;DHT22;8231;50.866;7.944;2023-12-20T02:36:25;5.70;99.90
16247;DHT22;8231;50.866;7.944;2023-12-20T02:38:54;5.60;99.90
16247;DHT22;8231;50.866;7.944;2023-12-20T02:41:22;5.50;99.90
16247;DHT22;8231;50.866;7.944;2023-12-20T02:43:51;5.50;99.90
16247;DHT22;8231;50.866;7.944;2023-12-20T02:46:19;5.50;99.90
16247;DHT22;8231;50.866;7.944;2023-12-20T02:48:47;5.50;99.90
16247;DHT22;8231;50.866;7.944;2023-12-20T02:51:15;5.50;99.90
16247;DHT22;8231;50.866;7.944;2023-12-20T02:53:43;5.50;99.90
16247;DHT22;8231;50.866;7.944;2023-12-20T02:56:13;5.50;99.90
16247;DHT22;8231;50.866;7.944;2023-12-20T02:58:41;5.50;99.90
16247;DHT22;8231;50.866;7.944;2023-12-20T03:01:09;5.50;99.90
16247;DHT22;8231;50.866;7.944;2023-12-20T03:03:37;5.50;99.90
16247;DHT22;8231;50.866;7.944;2023-12-20T03:06:06;5.50;99.90
16247;DHT22;8231;50.866;7.944;2023-12-20T03:08:34;5.50;99.90
16247;DHT22;8231;50.866;7.944;2023-12-20T03:11:02;5.60;99.90
16247;DHT22;8231;50.866;7.944;2023-12-20T03:13:32;5.50;99.90
16247;DHT22;8231;50.866;7.944;2023-12-20T03:16:00;5.50;99.90
16247;DHT22;8231;50.866;7.944;2023-12-20T03:18:28;5.50;99.90
16247;DHT22;8231;50.866;7.944;2023-12-20T03:20:57;5.50;99.90
16247;DHT22;8231;50.866;7.944;2023-12-20T03:23:25;5.50;99.90
16247;DHT22;8231;50.866;7.944;2023-12-20T03:25:54;5.40;99.90
16247;DHT22;8231;50.866;7.944;2023-12-20T03:28:22;5.40;99.90
16247;DHT22;8231;50.866;7.944;2023-12-20T03:30:52;5.40;99.90
16247;DHT22;8231;50.866;7.944;2023-12-20T03:33:20;5.40;99.90
16247;DHT22;8231;50.866;7.944;2023-12-20T03:35:48;5.30;99.90
16247;DHT22;8231;50.866;7.944;2023-12-20T03:38:16;5.30;99.90
16247;DHT22;8231;50.866;7.944;2023-12-20T03:40:45;5.20;99.90
16247;DHT22;8231;50.866;7.944;2023-12-20T03:43:13;5.30;99.90
16247;DHT22;8231;50.866;7.944;2023-12-20T03:45:42;5.20;99.90
16247;DHT22;8231;50.866;7.944;2023-12-20T03:48:11;5.20;99.90
16247;DHT22;8231;50.866;7.944;2023-12-20T03:50:39;5.10;99.90
16247;DHT22;8231;50.866;7.944;2023-12-20T03:53:08;5.00;99.90
16247;DHT22;8231;50.866;7.944;2023-12-20T03:55:36;5.00;99.90
16247;DHT22;8231;50.866;7.944;2023-12-20T03:58:04;5.00;99.90
16247;DHT22;8231;50.866;7.944;2023-12-20T04:00:32;5.00;99.90
16247;DHT22;8231;50.866;7.944;2023-12-20T04:03:01;4.90;99.90
16247;DHT22;8231;50.866;7.944;2023-12-20T04:05:30;4.90;99.90
16247;DHT22;8231;50.866;7.944;2023-12-20T04:08:01;4.90;99.90
16247;DHT22;8231;50.866;7.944;2023-12-20T04:10:30;4.90;99.90
16247;DHT22;8231;50.866;7.944;2023-12-20T04:12:58;4.90;99.90
16247;DHT22;8231;50.866;7.944;2023-12-20T04:15:26;4.90;99.90
16247;DHT22;8231;50.866;7.944;2023-12-20T04:17:55;4.90;99.90
16247;DHT22;8231;50.866;7.944;2023-12-20T04:20:23;4.90;99.90
16247;DHT22;8231;50.866;7.944;2023-12-20T04:22:52;4.90;99.90
16247;DHT22;8231;50.866;7.944;2023-12-20T04:25:21;4.90;99.90
16247;DHT22;8231;50.866;7.944;2023-12-20T04:27:49;4.90;99.90
16247;DHT22;8231;50.866;7.944;2023-12-20T04:30:17;4.90;99.90
16247;DHT22;8231;50.866;7.944;2023-12-20T04:32:46;4.90;99.90
16247;DHT22;8231;50.866;7.944;2023-12-20T04:35:14;4.90;99.90
16247;DHT22;8231;50.866;7.944;2023-12-20T04:37:42;4.90;99.90
16247;DHT22;8231;50.866;7.944;2023-12-20T04:40:12;4.90;99.90
16247;DHT22;8231;50.866;7.944;2023-12-20T04:42:40;4.90;99.90
16247;DHT22;8231;50.866;7.944;2023-12-20T04:45:09;4.90;99.90
16247;DHT22;8231;50.866;7.944;2023-12-20T04:47:41;4.90;99.90
16247;DHT22;8231;50.866;7.944;2023-12-20T04:50:10;4.90;99.90
16247;DHT22;8231;50.866;7.944;2023-12-20T04:52:40;4.90;99.90
16247;DHT22;8231;50.866;7.944;2023-12-20T04:55:08;4.80;99.90
16247;DHT22;8231;50.866;7.944;2023-12-20T04:57:38;4.90;99.90
16247;DHT22;8231;50.866;7.944;2023-12-20T05:00:07;4.90;99.90
16247;DHT22;8231;50.866;7.944;2023-12-20T05:02:36;4.80;99.90
16247;DHT22;8231;50.866;7.944;2023-12-20T05:05:05;4.90;99.90
16247;DHT22;8231;50.866;7.944;2023-12-20T05:07:33;4.90;99.90
16247;DHT22;8231;50.866;7.944;2023-12-20T05:10:03;4.80;99.90
16247;DHT22;8231;50.866;7.944;2023-12-20T05:12:31;4.80;99.90
16247;DHT22;8231;50.866;7.944;2023-12-20T05:15:01;4.80;99.90
16247;DHT22;8231;50.866;7.944;2023-12-20T05:17:30;4.80;99.90
16247;DHT22;8231;50.866;7.944;2023-12-20T05:19:58;4.70;99.90
16247;DHT22;8231;50.866;7.944;2023-12-20T05:22:27;4.70;99.90
16247;DHT22;8231;50.866;7.944;2023-12-20T05:24:55;4.60;99.90
16247;DHT22;8231;50.866;7.944;2023-12-20T05:27:23;4.60;99.90
16247;DHT22;8231;50.866;7.944;2023-12-20T05:29:51;4.70;99.90
16247;DHT22;8231;50.866;7.944;2023-12-20T05:32:21;4.60;99.90
16247;DHT22;8231;50.866;7.944;2023-12-20T05:34:49;4.70;99.90
16247;DHT22;8231;50.866;7.944;2023-12-20T05:37:17;4.70;99.90
16247;DHT22;8231;50.866;7.944;2023-12-20T05:39:46;4.70;99.90
16247;DHT22;8231;50.866;7.944;2023-12-20T05:42:14;4.70;99.90
16247;DHT22;8231;50.866;7.944;2023-12-20T05:44:42;4.70;99.90
16247;DHT22;8231;50.866;7.944;2023-12-20T05:47:10;4.60;99.90
16247;DHT22;8231;50.866;7.944;2023-12-20T05:49:40;4.70;99.90
16247;DHT22;8231;50.866;7.944;2023-12-20T05:52:08;4.70;99.90
16247;DHT22;8231;50.866;7.944;2023-12-20T05:54:37;4.80;99.90
16247;DHT22;8231;50.866;7.944;2023-12-20T05:57:05;4.70;99.90
16247;DHT22;8231;50.866;7.944;2023-12-20T05:59:33;4.70;99.90
16247;DHT22;8231;50.866;7.944;2023-12-20T06:02:03;4.70;99.90
16247;DHT22;8231;50.866;7.944;2023-12-20T06:04:31;4.70;99.90
16247;DHT22;8231;50.866;7.944;2023-12-20T06:07:02;4.70;99.90
16247;DHT22;8231;50.866;7.944;2023-12-20T06:09:30;4.60;99.90
16247;DHT22;8231;50.866;7.944;2023-12-20T06:11:58;4.70;99.90
16247;DHT22;8231;50.866;7.944;2023-12-20T06:14:27;4.90;99.90
16247;DHT22;8231;50.866;7.944;2023-12-20T06:16:55;4.70;99.90
16247;DHT22;8231;50.866;7.944;2023-12-20T06:19:24;4.70;99.90
16247;DHT22;8231;50.866;7.944;2023-12-20T06:21:52;4.70;99.90
16247;DHT22;8231;50.866;7.944;2023-12-20T06:24:22;4.70;99.90
16247;DHT22;8231;50.866;7.944;2023-12-20T06:26:54;4.70;99.90
16247;DHT22;8231;50.866;7.944;2023-12-20T06:29:23;4.70;99.90
16247;DHT22;8231;50.866;7.944;2023-12-20T06:31:51;4.70;99.90
16247;DHT22;8231;50.866;7.944;2023-12-20T06:34:19;4.70;99.90
16247;DHT22;8231;50.866;7.944;2023-12-20T06:36:47;4.70;99.90
16247;DHT22;8231;50.866;7.944;2023-12-20T06:39:15;4.70;99.90
16247;DHT22;8231;50.866;7.944;2023-12-20T06:41:45;4.80;99.90
16247;DHT22;8231;50.866;7.944;2023-12-20T06:44:13;4.80;99.90
16247;DHT22;8231;50.866;7.944;2023-12-20T06:46:41;4.80;99.90
16247;DHT22;8231;50.866;7.944;2023-12-20T06:49:10;4.70;99.90
16247;DHT22;8231;50.866;7.944;2023-12-20T06:51:39;4.80;99.90
16247;DHT22;8231;50.866;7.944;2023-12-20T06:54:07;4.80;99.90
16247;DHT22;8231;50.866;7.944;2023-12-20T06:56:35;4.80;99.90
16247;DHT22;8231;50.866;7.944;2023-12-20T06:59:05;4.80;99.90
16247;DHT22;8231;50.866;7.944;2023-12-20T07:01:33;4.80;99.90
16247;DHT22;8231;50.866;7.944;2023-12-20T07:04:01;4.80;99.90
16247;DHT22;8231;50.866;7.944;2023-12-20T07:06:30;4.80;99.90
16247;DHT22;8231;50.866;7.944;2023-12-20T07:08:58;4.80;99.90
16247;DHT22;8231;50.866;7.944;2023-12-20T07:11:26;4.80;99.90
16247;DHT22;8231;50.866;7.944;2023-12-20T07:13:54;4.80;99.90
16247;DHT22;8231;50.866;7.944;2023-12-20T07:16:24;4.90;99.90
16247;DHT22;8231;50.866;7.944;2023-12-20T07:18:52;4.80;99.90
16247;DHT22;8231;50.866;7.944;2023-12-20T07:21:20;4.80;99.90
16247;DHT22;8231;50.866;7.944;2023-12-20T07:23:56;4.70;99.90
16247;DHT22;8231;50.866;7.944;2023-12-20T07:26:24;4.70;99.90
16247;DHT22;8231;50.866;7.944;2023-12-20T07:28:52;4.80;99.90
16247;DHT22;8231;50.866;7.944;2023-12-20T07:31:24;4.80;99.90
16247;DHT22;8231;50.866;7.944;2023-12-20T07:33:53;4.80;99.90
16247;DHT22;8231;50.866;7.944;2023-12-20T07:36:24;4.70;99.90
16247;DHT22;8231;50.866;7.944;2023-12-20T07:38:52;4.80;99.90
16247;DHT22;8231;50.866;7.944;2023-12-20T07:41:20;4.80;99.90
16247;DHT22;8231;50.866;7.944;2023-12-20T07:43:48;4.70;99.90
16247;DHT22;8231;50.866;7.944;2023-12-20T07:46:16;4.80;99.90
16247;DHT22;8231;50.866;7.944;2023-12-20T07:48:47;4.80;99.90
16247;DHT22;8231;50.866;7.944;2023-12-20T07:51:15;4.80;99.90
16247;DHT22;8231;50.866;7.944;2023-12-20T07:53:43;4.80;99.90
16247;DHT22;8231;50.866;7.944;2023-12-20T07:56:15;4.80;99.90
16247;DHT22;8231;50.866;7.944;2023-12-20T07:58:43;4.90;99.90
16247;DHT22;8231;50.866;7.944;2023-12-20T08:01:19;4.90;99.90
16247;DHT22;8231;50.866;7.944;2023-12-20T08:03:50;5.00;99.90
16247;DHT22;8231;50.866;7.944;2023-12-20T08:06:19;5.00;99.90
16247;DHT22;8231;50.866;7.944;2023-12-20T08:08:47;5.00;99.90
16247;DHT22;8231;50.866;7.944;2023-12-20T08:11:28;5.00;99.90
16247;DHT22;8231;50.866;7.944;2023-12-20T08:13:56;5.00;99.90
16247;DHT22;8231;50.866;7.944;2023-12-20T08:16:24;5.00;99.90
16247;DHT22;8231;50.866;7.944;2023-12-20T08:18:53;4.90;99.90
16247;DHT22;8231;50.866;7.944;2023-12-20T08:21:22;5.20;99.90
16247;DHT22;8231;50.866;7.944;2023-12-20T08:23:50;5.10;99.90
16247;DHT22;8231;50.866;7.944;2023-12-20T08:26:19;5.00;99.90
16247;DHT22;8231;50.866;7.944;2023-12-20T08:28:49;5.00;99.90
16247;DHT22;8231;50.866;7.944;2023-12-20T08:31:18;5.00;99.90
16247;DHT22;8231;50.866;7.944;2023-12-20T08:33:48;5.10;99.90
16247;DHT22;8231;50.866;7.944;2023-12-20T08:36:18;5.00;99.90
16247;DHT22;8231;50.866;7.944;2023-12-20T08:38:48;5.00;99.90
16247;DHT22;8231;50.866;7.944;2023-12-20T08:41:16;5.10;99.90
16247;DHT22;8231;50.866;7.944;2023-12-20T08:43:45;5.00;99.90
16247;DHT22;8231;50.866;7.944;2023-12-20T08:46:15;5.00;99.90
16247;DHT22;8231;50.866;7.944;2023-12-20T08:48:43;5.00;99.90
16247;DHT22;8231;50.866;7.944;2023-12-20T08:51:13;5.00;99.90
16247;DHT22;8231;50.866;7.944;2023-12-20T08:53:43;5.00;99.90
16247;DHT22;8231;50.866;7.944;2023-12-20T08:56:12;5.00;99.90
16247;DHT22;8231;50.866;7.944;2023-12-20T08:58:40;5.00;99.90
16247;DHT22;8231;50.866;7.944;2023-12-20T09:01:08;5.00;99.90
16247;DHT22;8231;50.866;7.944;2023-12-20T09:03:37;5.00;99.90
16247;DHT22;8231;50.866;7.944;2023-12-20T09:06:05;5.00;99.90
16247;DHT22;8231;50.866;7.944;2023-12-20T09:08:34;5.00;99.90
16247;DHT22;8231;50.866;7.944;2023-12-20T09:11:03;5.00;99.90
16247;DHT22;8231;50.866;7.944;2023-12-20T09:13:32;5.00;99.90
16247;DHT22;8231;50.866;7.944;2023-12-20T09:16:00;5.00;99.90
16247;DHT22;8231;50.866;7.944;2023-12-20T09:18:29;5.00;99.90
16247;DHT22;8231;50.866;7.944;2023-12-20T09:20:57;5.00;99.90
16247;DHT22;8231;50.866;7.944;2023-12-20T09:23:25;5.00;99.90
16247;DHT22;8231;50.866;7.944;2023-12-20T09:25:54;5.00;99.90
16247;DHT22;8231;50.866;7.944;2023-12-20T09:28:25;5.00;99.90
16247;DHT22;8231;50.866;7.944;2023-12-20T09:30:54;5.00;99.90
16247;DHT22;8231;50.866;7.944;2023-12-20T09:33:22;5.00;99.90
16247;DHT22;8231;50.866;7.944;2023-12-20T09:35:52;5.00;99.90
16247;DHT22;8231;50.866;7.944;2023-12-20T09:38:20;5.00;99.90
16247;DHT22;8231;50.866;7.944;2023-12-20T09:40:50;5.00;99.90
16247;DHT22;8231;50.866;7.944;2023-12-20T09:43:19;5.00;99.90
16247;DHT22;8231;50.866;7.944;2023-12-20T09:45:53;5.00;99.90
16247;DHT22;8231;50.866;7.944;2023-12-20T09:48:21;5.00;99.90
16247;DHT22;8231;50.866;7.944;2023-12-20T09:50:50;5.10;99.90
16247;DHT22;8231;50.866;7.944;2023-12-20T09:53:20;5.10;99.90
16247;DHT22;8231;50.866;7.944;2023-12-20T09:55:51;5.00;99.90
16247;DHT22;8231;50.866;7.944;2023-12-20T09:58:20;5.00;99.90
16247;DHT22;8231;50.866;7.944;2023-12-20T10:00:50;5.10;99.90
16247;DHT22;8231;50.866;7.944;2023-12-20T10:03:23;5.00;99.90
16247;DHT22;8231;50.866;7.944;2023-12-20T10:05:54;5.00;99.90
16247;DHT22;8231;50.866;7.944;2023-12-20T10:08:24;5.10;99.90
16247;DHT22;8231;50.866;7.944;2023-12-20T10:10:53;5.50;99.90
16247;DHT22;8231;50.866;7.944;2023-12-20T10:13:22;5.10;99.90
16247;DHT22;8231;50.866;7.944;2023-12-20T10:15:52;5.00;99.90
16247;DHT22;8231;50.866;7.944;2023-12-20T10:18:20;5.10;99.90
16247;DHT22;8231;50.866;7.944;2023-12-20T10:21:03;5.10;99.90
16247;DHT22;8231;50.866;7.944;2023-12-20T10:23:33;5.10;99.90
16247;DHT22;8231;50.866;7.944;2023-12-20T10:26:02;5.00;99.90
16247;DHT22;8231;50.866;7.944;2023-12-20T10:28:33;5.10;99.90
16247;DHT22;8231;50.866;7.944;2023-12-20T10:31:04;5.10;99.90
16247;DHT22;8231;50.866;7.944;2023-12-20T10:33:32;5.10;99.90
16247;DHT22;8231;50.866;7.944;2023-12-20T10:36:01;5.10;99.90
16247;DHT22;8231;50.866;7.944;2023-12-20T10:38:30;5.10;99.90
16247;DHT22;8231;50.866;7.944;2023-12-20T10:40:58;5.10;99.90
16247;DHT22;8231;50.866;7.944;2023-12-20T10:43:28;5.10;99.90
16247;DHT22;8231;50.866;7.944;2023-12-20T10:45:59;5.10;99.90
16247;DHT22;8231;50.866;7.944;2023-12-20T10:48:30;5.10;99.90
16247;DHT22;8231;50.866;7.944;2023-12-20T10:51:01;5.10;99.90
16247;DHT22;8231;50.866;7.944;2023-12-20T10:53:29;5.10;99.90
16247;DHT22;8231;50.866;7.944;2023-12-20T10:56:00;5.10;99.90
16247;DHT22;8231;50.866;7.944;2023-12-20T10:58:32;5.10;99.90
16247;DHT22;8231;50.866;7.944;2023-12-20T11:01:01;5.10;99.90
16247;DHT22;8231;50.866;7.944;2023-12-20T11:03:35;5.10;99.90
16247;DHT22;8231;50.866;7.944;2023-12-20T11:06:10;5.10;99.90
16247;DHT22;8231;50.866;7.944;2023-12-20T11:08:46;5.10;99.90
16247;DHT22;8231;50.866;7.944;2023-12-20T11:11:23;5.10;99.90
16247;DHT22;8231;50.866;7.944;2023-12-20T11:13:57;5.10;99.90
16247;DHT22;8231;50.866;7.944;2023-12-20T11:16:27;5.10;99.90
16247;DHT22;8231;50.866;7.944;2023-12-20T11:19:11;5.10;99.90
16247;DHT22;8231;50.866;7.944;2023-12-20T11:21:41;5.00;99.90
16247;DHT22;8231;50.866;7.944;2023-12-20T11:24:10;5.00;99.90
16247;DHT22;8231;50.866;7.944;2023-12-20T11:26:38;5.00;99.90
16247;DHT22;8231;50.866;7.944;2023-12-20T11:29:30;5.00;99.90
16247;DHT22;8231;50.866;7.944;2023-12-20T11:32:00;5.00;99.90
16247;DHT22;8231;50.866;7.944;2023-12-20T11:34:31;5.10;99.90
16247;DHT22;8231;50.866;7.944;2023-12-20T11:37:00;5.10;99.90
16247;DHT22;8231;50.866;7.944;2023-12-20T11:39:31;5.10;99.90
16247;DHT22;8231;50.866;7.944;2023-12-20T11:42:04;5.10;99.90
16247;DHT22;8231;50.866;7.944;2023-12-20T11:44:33;5.10;99.90
16247;DHT22;8231;50.866;7.944;2023-12-20T11:47:02;5.10;99.90
16247;DHT22;8231;50.866;7.944;2023-12-20T11:49:32;5.10;99.90
16247;DHT22;8231;50.866;7.944;2023-12-20T11:52:00;5.10;99.90
16247;DHT22;8231;50.866;7.944;2023-12-20T11:54:30;5.10;99.90
16247;DHT22;8231;50.866;7.944;2023-12-20T11:56:58;5.10;99.90
16247;DHT22;8231;50.866;7.944;2023-12-20T11:59:26;5.10;99.90
16247;DHT22;8231;50.866;7.944;2023-12-20T12:01:55;5.10;99.90
16247;DHT22;8231;50.866;7.944;2023-12-20T12:04:28;5.10;99.90
16247;DHT22;8231;50.866;7.944;2023-12-20T12:06:58;5.20;99.90
16247;DHT22;8231;50.866;7.944;2023-12-20T12:09:26;5.20;99.90
16247;DHT22;8231;50.866;7.944;2023-12-20T12:11:55;5.50;99.90
16247;DHT22;8231;50.866;7.944;2023-12-20T12:14:24;5.20;99.90
16247;DHT22;8231;50.866;7.944;2023-12-20T12:16:52;5.60;99.90
16247;DHT22;8231;50.866;7.944;2023-12-20T12:19:21;5.20;99.90
16247;DHT22;8231;50.866;7.944;2023-12-20T12:21:50;5.20;99.90
16247;DHT22;8231;50.866;7.944;2023-12-20T12:24:21;5.50;99.90
16247;DHT22;8231;50.866;7.944;2023-12-20T12:26:50;5.20;99.90
16247;DHT22;8231;50.866;7.944;2023-12-20T12:29:19;5.60;99.90
16247;DHT22;8231;50.866;7.944;2023-12-20T12:31:47;5.20;99.90
16247;DHT22;8231;50.866;7.944;2023-12-20T12:34:17;5.20;99.90
16247;DHT22;8231;50.866;7.944;2023-12-20T12:36:46;5.30;99.90
16247;DHT22;8231;50.866;7.944;2023-12-20T12:39:16;5.20;99.90
16247;DHT22;8231;50.866;7.944;2023-12-20T12:41:47;5.20;99.90
16247;DHT22;8231;50.866;7.944;2023-12-20T12:44:15;5.30;99.90
16247;DHT22;8231;50.866;7.944;2023-12-20T12:46:44;5.90;99.90
16247;DHT22;8231;50.866;7.944;2023-12-20T12:49:13;5.20;99.90
16247;DHT22;8231;50.866;7.944;2023-12-20T12:51:42;5.30;99.90
16247;DHT22;8231;50.866;7.944;2023-12-20T12:56:40;5.40;99.90
16247;DHT22;8231;50.866;7.944;2023-12-20T12:59:10;5.30;99.90
16247;DHT22;8231;50.866;7.944;2023-12-20T13:01:38;5.40;99.90
16247;DHT22;8231;50.866;7.944;2023-12-20T13:04:06;5.30;99.90
16247;DHT22;8231;50.866;7.944;2023-12-20T13:06:38;5.30;99.90
16247;DHT22;8231;50.866;7.944;2023-12-20T13:09:08;5.30;99.90
16247;DHT22;8231;50.866;7.944;2023-12-20T13:11:37;5.30;99.90
16247;DHT22;8231;50.866;7.944;2023-12-20T13:14:05;5.30;99.90
16247;DHT22;8231;50.866;7.944;2023-12-20T13:16:38;5.30;99.90
16247;DHT22;8231;50.866;7.944;2023-12-20T13:19:07;5.20;99.90
16247;DHT22;8231;50.866;7.944;2023-12-20T13:21:35;5.20;99.90
16247;DHT22;8231;50.866;7.944;2023-12-20T13:24:04;5.20;99.90
16247;DHT22;8231;50.866;7.944;2023-12-20T13:26:33;5.20;99.90
16247;DHT22;8231;50.866;7.944;2023-12-20T13:29:02;5.20;99.90
16247;DHT22;8231;50.866;7.944;2023-12-20T13:31:30;5.20;99.90
16247;DHT22;8231;50.866;7.944;2023-12-20T13:33:59;5.30;99.90
16247;DHT22;8231;50.866;7.944;2023-12-20T13:36:29;5.30;99.90
16247;DHT22;8231;50.866;7.944;2023-12-20T13:38:57;5.20;99.90
16247;DHT22;8231;50.866;7.944;2023-12-20T13:41:25;5.20;99.90
16247;DHT22;8231;50.866;7.944;2023-12-20T13:43:53;5.20;99.90
16247;DHT22;8231;50.866;7.944;2023-12-20T13:46:22;5.20;99.90
16247;DHT22;8231;50.866;7.944;2023-12-20T13:48:51;5.20;99.90
16247;DHT22;8231;50.866;7.944;2023-12-20T13:51:21;5.30;99.90
16247;DHT22;8231;50.866;7.944;2023-12-20T13:53:49;5.30;99.90
16247;DHT22;8231;50.866;7.944;2023-12-20T13:56:17;5.30;99.90
16247;DHT22;8231;50.866;7.944;2023-12-20T13:58:47;5.20;99.90
16247;DHT22;8231;50.866;7.944;2023-12-20T14:01:15;5.20;99.90
16247;DHT22;8231;50.866;7.944;2023-12-20T14:03:43;5.20;99.90
16247;DHT22;8231;50.866;7.944;2023-12-20T14:06:12;5.20;99.90
16247;DHT22;8231;50.866;7.944;2023-12-20T14:08:43;5.30;99.90
16247;DHT22;8231;50.866;7.944;2023-12-20T14:11:11;5.30;99.90
16247;DHT22;8231;50.866;7.944;2023-12-20T14:13:40;5.30;99.90
16247;DHT22;8231;50.866;7.944;2023-12-20T14:16:08;5.40;99.90
16247;DHT22;8231;50.866;7.944;2023-12-20T14:18:38;5.30;99.90
16247;DHT22;8231;50.866;7.944;2023-12-20T14:21:07;5.60;99.90
16247;DHT22;8231;50.866;7.944;2023-12-20T14:23:35;5.60;99.90
16247;DHT22;8231;50.866;7.944;2023-12-20T14:26:05;5.40;99.90
16247;DHT22;8231;50.866;7.944;2023-12-20T14:28:33;5.60;99.90
16247;DHT22;8231;50.866;7.944;2023-12-20T14:31:03;5.30;99.90
16247;DHT22;8231;50.866;7.944;2023-12-20T14:33:32;5.40;99.90
16247;DHT22;8231;50.866;7.944;2023-12-20T14:35:59;5.40;99.90
16247;DHT22;8231;50.866;7.944;2023-12-20T14:38:28;5.30;99.90
16247;DHT22;8231;50.866;7.944;2023-12-20T14:40:56;5.50;99.90
16247;DHT22;8231;50.866;7.944;2023-12-20T14:43:26;5.40;99.90
16247;DHT22;8231;50.866;7.944;2023-12-20T14:45:54;5.30;99.90
16247;DHT22;8231;50.866;7.944;2023-12-20T14:48:23;5.30;99.90
16247;DHT22;8231;50.866;7.944;2023-12-20T14:50:52;5.70;99.90
16247;DHT22;8231;50.866;7.944;2023-12-20T14:53:20;5.40;99.90
16247;DHT22;8231;50.866;7.944;2023-12-20T14:55:49;5.40;99.90
16247;DHT22;8231;50.866;7.944;2023-12-20T14:58:18;5.40;99.90
16247;DHT22;8231;50.866;7.944;2023-12-20T15:00:48;5.30;99.90
16247;DHT22;8231;50.866;7.944;2023-12-20T15:03:16;5.70;99.90
16247;DHT22;8231;50.866;7.944;2023-12-20T15:05:45;5.60;99.90
16247;DHT22;8231;50.866;7.944;2023-12-20T15:08:15;5.70;99.90
16247;DHT22;8231;50.866;7.944;2023-12-20T15:10:43;5.30;99.90
16247;DHT22;8231;50.866;7.944;2023-12-20T15:13:11;5.40;99.90
16247;DHT22;8231;50.866;7.944;2023-12-20T15:15:40;5.70;99.90
16247;DHT22;8231;50.866;7.944;2023-12-20T15:18:14;5.30;99.90
16247;DHT22;8231;50.866;7.944;2023-12-20T15:20:42;5.30;99.90
16247;DHT22;8231;50.866;7.944;2023-12-20T15:23:12;5.30;99.90
16247;DHT22;8231;50.866;7.944;2023-12-20T15:25:40;5.40;99.90
16247;DHT22;8231;50.866;7.944;2023-12-20T15:28:09;5.30;99.90
16247;DHT22;8231;50.866;7.944;2023-12-20T15:30:38;5.30;99.90
16247;DHT22;8231;50.866;7.944;2023-12-20T15:33:06;5.30;99.90
16247;DHT22;8231;50.866;7.944;2023-12-20T15:35:35;5.30;99.90
16247;DHT22;8231;50.866;7.944;2023-12-20T15:38:04;5.30;99.90
16247;DHT22;8231;50.866;7.944;2023-12-20T15:40:32;5.30;99.90
16247;DHT22;8231;50.866;7.944;2023-12-20T15:43:00;5.30;99.90
16247;DHT22;8231;50.866;7.944;2023-12-20T15:45:28;5.30;99.90
16247;DHT22;8231;50.866;7.944;2023-12-20T15:47:56;5.30;99.90
16247;DHT22;8231;50.866;7.944;2023-12-20T15:50:25;5.30;99.90
16247;DHT22;8231;50.866;7.944;2023-12-20T15:52:54;5.30;99.90
16247;DHT22;8231;50.866;7.944;2023-12-20T15:55:23;5.30;99.90
16247;DHT22;8231;50.866;7.944;2023-12-20T15:57:51;5.40;99.90
16247;DHT22;8231;50.866;7.944;2023-12-20T16:00:21;5.30;99.90
16247;DHT22;8231;50.866;7.944;2023-12-20T16:02:50;5.40;99.90
16247;DHT22;8231;50.866;7.944;2023-12-20T16:05:19;5.40;99.90
16247;DHT22;8231;50.866;7.944;2023-12-20T16:07:48;5.40;99.90
16247;DHT22;8231;50.866;7.944;2023-12-20T16:10:18;5.30;99.90
16247;DHT22;8231;50.866;7.944;2023-12-20T16:12:47;5.30;99.90
16247;DHT22;8231;50.866;7.944;2023-12-20T16:15:15;5.30;99.90